RYR21MN LIME-LFBZ
Flight info
| Callsign | RYR21MN |
|---|---|
| Flight time | N/A |
| Altitude | 39000 |
| Route | OMETO DCT BELUS/N0436F380 DCT LSE/N0438F390 UY305 ESIDA DCT FISTO DCT BAKTA DCT MAGEC |
| Aircraft | B738/M-SDE2E3FGHIRWXY/LB1 |
Departure
| Time | 2026-04-28 19:19 |
|---|---|
| Airport | Il Caravaggio International Airport (LIME) |
Arrival
| Time | N/A |
|---|---|
| Airport | Biarritz Pays Basque airport (LFBZ) |
| Time | Latitude | Longitude | Altitude | Speed | Heading |
|---|---|---|---|---|---|
| 2026-04-28 18:41 | 45.66672 | 9.69862 | 790 ft | 0 kts | 195° |
| 2026-04-28 19:08 | 45.66679 | 9.69865 | 786 ft | 4 kts | 195° |
| 2026-04-28 19:08 | 45.66706 | 9.69875 | 786 ft | 4 kts | 195° |
| 2026-04-28 19:08 | 45.66729 | 9.69884 | 786 ft | 2 kts | 195° |
| 2026-04-28 19:09 | 45.66752 | 9.69886 | 786 ft | 4 kts | 149° |
| 2026-04-28 19:09 | 45.66768 | 9.69860 | 786 ft | 4 kts | 110° |
| 2026-04-28 19:09 | 45.66771 | 9.69845 | 786 ft | 1 kts | 105° |
| 2026-04-28 19:12 | 45.66770 | 9.69853 | 786 ft | 3 kts | 104° |
| 2026-04-28 19:12 | 45.66759 | 9.69912 | 786 ft | 10 kts | 104° |
| 2026-04-28 19:12 | 45.66736 | 9.70032 | 786 ft | 15 kts | 105° |
| 2026-04-28 19:13 | 45.66708 | 9.70191 | 786 ft | 18 kts | 104° |
| 2026-04-28 19:13 | 45.66673 | 9.70376 | 786 ft | 20 kts | 104° |
| 2026-04-28 19:13 | 45.66636 | 9.70582 | 786 ft | 23 kts | 105° |
| 2026-04-28 19:13 | 45.66593 | 9.70809 | 786 ft | 25 kts | 104° |
| 2026-04-28 19:14 | 45.66545 | 9.71041 | 786 ft | 26 kts | 118° |
| 2026-04-28 19:14 | 45.66494 | 9.71262 | 786 ft | 25 kts | 105° |
| 2026-04-28 19:14 | 45.66450 | 9.71492 | 786 ft | 24 kts | 105° |
| 2026-04-28 19:14 | 45.66458 | 9.71722 | 786 ft | 22 kts | 74° |
| 2026-04-28 19:15 | 45.66479 | 9.71831 | 786 ft | 0 kts | 75° |
| 2026-04-28 19:17 | 45.66479 | 9.71834 | 786 ft | 2 kts | 75° |
| 2026-04-28 19:17 | 45.66493 | 9.71886 | 786 ft | 10 kts | 62° |
| 2026-04-28 19:17 | 45.66550 | 9.71935 | 786 ft | 8 kts | 334° |
| 2026-04-28 19:18 | 45.66565 | 9.71877 | 786 ft | 0 kts | 285° |
| 2026-04-28 19:18 | 45.66574 | 9.71825 | 786 ft | 12 kts | 284° |
| 2026-04-28 19:18 | 45.66651 | 9.71406 | 786 ft | 81 kts | 285° |
| 2026-04-28 19:19 | 45.66858 | 9.70290 | 787 ft | 148 kts | 285° |
| 2026-04-28 19:19 | 45.67136 | 9.68763 | 1268 ft | 165 kts | 285° |
| 2026-04-28 19:19 | 45.67298 | 9.67116 | 1993 ft | 172 kts | 259° |
| 2026-04-28 19:19 | 45.66855 | 9.65423 | 2456 ft | 195 kts | 250° |
| 2026-04-28 19:20 | 45.66644 | 9.63373 | 2806 ft | 219 kts | 267° |
| 2026-04-28 19:20 | 45.66599 | 9.61092 | 3097 ft | 240 kts | 268° |
| 2026-04-28 19:20 | 45.66564 | 9.58658 | 3624 ft | 250 kts | 269° |
| 2026-04-28 19:20 | 45.66539 | 9.56151 | 4388 ft | 254 kts | 268° |
| 2026-04-28 19:21 | 45.66496 | 9.53647 | 5347 ft | 251 kts | 268° |
| 2026-04-28 19:21 | 45.66448 | 9.51154 | 6346 ft | 251 kts | 268° |
| 2026-04-28 19:21 | 45.66394 | 9.48640 | 7172 ft | 253 kts | 267° |
| 2026-04-28 19:21 | 45.66333 | 9.46118 | 8015 ft | 254 kts | 267° |
| 2026-04-28 19:22 | 45.66265 | 9.43584 | 8812 ft | 257 kts | 267° |
| 2026-04-28 19:22 | 45.66218 | 9.41886 | 9363 ft | 258 kts | 266° |
| 2026-04-28 19:22 | 45.66120 | 9.38447 | 10338 ft | 264 kts | 266° |
| 2026-04-28 19:22 | 45.66035 | 9.35818 | 11022 ft | 264 kts | 265° |
| 2026-04-28 19:23 | 45.65928 | 9.33191 | 11847 ft | 265 kts | 265° |
| 2026-04-28 19:23 | 45.65816 | 9.30557 | 12659 ft | 266 kts | 265° |
| 2026-04-28 19:23 | 45.65702 | 9.27904 | 13501 ft | 268 kts | 265° |
| 2026-04-28 19:23 | 45.65589 | 9.25240 | 14290 ft | 270 kts | 265° |
| 2026-04-28 19:24 | 45.65476 | 9.22552 | 15062 ft | 271 kts | 265° |
| 2026-04-28 19:24 | 45.65362 | 9.19855 | 15853 ft | 273 kts | 266° |
| 2026-04-28 19:24 | 45.65246 | 9.17138 | 16639 ft | 275 kts | 266° |
| 2026-04-28 19:24 | 45.65129 | 9.14394 | 17426 ft | 277 kts | 266° |
| 2026-04-28 19:25 | 45.65011 | 9.11634 | 18194 ft | 279 kts | 266° |
| 2026-04-28 19:25 | 45.64890 | 9.08850 | 18872 ft | 282 kts | 266° |
| 2026-04-28 19:25 | 45.64767 | 9.06032 | 19527 ft | 285 kts | 266° |
| 2026-04-28 19:25 | 45.64644 | 9.03221 | 20156 ft | 289 kts | 266° |
| 2026-04-28 19:26 | 45.64652 | 9.00276 | 20608 ft | 301 kts | 274° |
| 2026-04-28 19:26 | 45.64913 | 8.97238 | 20732 ft | 322 kts | 277° |
| 2026-04-28 19:26 | 45.65264 | 8.93973 | 20892 ft | 342 kts | 278° |
| 2026-04-28 19:26 | 45.65640 | 8.90525 | 21016 ft | 360 kts | 278° |
| 2026-04-28 19:27 | 45.66021 | 8.86901 | 21200 ft | 376 kts | 277° |
| 2026-04-28 19:27 | 45.66399 | 8.83156 | 21655 ft | 383 kts | 277° |
| 2026-04-28 19:27 | 45.66768 | 8.79380 | 22274 ft | 385 kts | 277° |
| 2026-04-28 19:27 | 45.67133 | 8.75569 | 22883 ft | 388 kts | 277° |
| 2026-04-28 19:28 | 45.67496 | 8.71721 | 23448 ft | 392 kts | 277° |
| 2026-04-28 19:28 | 45.67859 | 8.67843 | 23925 ft | 396 kts | 277° |
| 2026-04-28 19:28 | 45.68224 | 8.63927 | 24432 ft | 397 kts | 277° |
| 2026-04-28 19:28 | 45.68585 | 8.60047 | 24940 ft | 399 kts | 276° |
| 2026-04-28 19:29 | 45.68951 | 8.56100 | 25423 ft | 401 kts | 276° |
| 2026-04-28 19:29 | 45.69198 | 8.53420 | 25748 ft | 403 kts | 276° |
| 2026-04-28 19:29 | 45.69686 | 8.48138 | 26384 ft | 405 kts | 276° |
| 2026-04-28 19:29 | 45.70055 | 8.44126 | 26863 ft | 407 kts | 276° |
| 2026-04-28 19:30 | 45.70424 | 8.40099 | 27342 ft | 409 kts | 276° |
| 2026-04-28 19:30 | 45.70797 | 8.36055 | 27772 ft | 411 kts | 276° |
| 2026-04-28 19:30 | 45.71169 | 8.32037 | 28213 ft | 413 kts | 276° |
| 2026-04-28 19:30 | 45.71546 | 8.27954 | 28647 ft | 415 kts | 276° |
| 2026-04-28 19:31 | 45.71925 | 8.23845 | 29075 ft | 417 kts | 276° |
| 2026-04-28 19:31 | 45.72302 | 8.19720 | 29492 ft | 418 kts | 276° |
| 2026-04-28 19:31 | 45.72680 | 8.15579 | 29956 ft | 419 kts | 276° |
| 2026-04-28 19:31 | 45.73055 | 8.11457 | 30284 ft | 422 kts | 276° |
| 2026-04-28 19:32 | 45.73432 | 8.07290 | 30542 ft | 425 kts | 276° |
| 2026-04-28 19:32 | 45.73730 | 8.03787 | 30833 ft | 425 kts | 274° |
| 2026-04-28 19:32 | 45.73848 | 7.99631 | 31286 ft | 422 kts | 269° |
| 2026-04-28 19:32 | 45.73792 | 7.95456 | 31847 ft | 416 kts | 268° |
| 2026-04-28 19:33 | 45.73675 | 7.91343 | 32380 ft | 412 kts | 267° |
| 2026-04-28 19:33 | 45.73548 | 7.87246 | 32802 ft | 411 kts | 267° |
| 2026-04-28 19:33 | 45.73432 | 7.83153 | 33244 ft | 409 kts | 267° |
| 2026-04-28 19:33 | 45.73332 | 7.79102 | 33780 ft | 405 kts | 268° |
| 2026-04-28 19:34 | 45.73246 | 7.75079 | 34237 ft | 403 kts | 268° |
| 2026-04-28 19:34 | 45.73167 | 7.71067 | 34514 ft | 403 kts | 268° |
| 2026-04-28 19:34 | 45.73092 | 7.67043 | 34778 ft | 405 kts | 268° |
| 2026-04-28 19:34 | 45.73018 | 7.63052 | 35089 ft | 404 kts | 268° |
| 2026-04-28 19:35 | 45.72944 | 7.59030 | 35400 ft | 404 kts | 268° |
| 2026-04-28 19:35 | 45.72870 | 7.55009 | 35682 ft | 404 kts | 268° |
| 2026-04-28 19:35 | 45.72793 | 7.50982 | 35937 ft | 405 kts | 268° |
| 2026-04-28 19:35 | 45.72715 | 7.46962 | 36187 ft | 404 kts | 268° |
| 2026-04-28 19:36 | 45.72636 | 7.42938 | 36451 ft | 405 kts | 268° |
| 2026-04-28 19:36 | 45.72555 | 7.38913 | 36664 ft | 406 kts | 268° |
| 2026-04-28 19:36 | 45.72473 | 7.34876 | 36931 ft | 406 kts | 268° |
| 2026-04-28 19:36 | 45.72388 | 7.30837 | 37230 ft | 405 kts | 268° |
| 2026-04-28 19:37 | 45.72303 | 7.26808 | 37501 ft | 405 kts | 269° |
| 2026-04-28 19:37 | 45.72275 | 7.25502 | 37573 ft | 405 kts | 268° |
| 2026-04-28 19:37 | 45.72128 | 7.18743 | 37976 ft | 405 kts | 268° |
| 2026-04-28 19:37 | 45.72039 | 7.14742 | 38048 ft | 409 kts | 269° |
| 2026-04-28 19:38 | 45.71852 | 7.06536 | 38062 ft | 412 kts | 268° |
| 2026-04-28 19:38 | 45.71660 | 6.98439 | 38081 ft | 403 kts | 268° |
| 2026-04-28 19:39 | 45.71467 | 6.90422 | 38322 ft | 405 kts | 268° |
| 2026-04-28 19:39 | 45.71367 | 6.86380 | 38519 ft | 406 kts | 268° |
| 2026-04-28 19:39 | 45.71266 | 6.82339 | 38726 ft | 406 kts | 268° |
| 2026-04-28 19:40 | 45.71163 | 6.78296 | 38919 ft | 406 kts | 268° |
| 2026-04-28 19:40 | 45.71094 | 6.75619 | 39058 ft | 406 kts | 268° |
| 2026-04-28 19:40 | 45.70845 | 6.66137 | 39069 ft | 412 kts | 268° |
| 2026-04-28 19:41 | 45.70662 | 6.59349 | 39065 ft | 408 kts | 268° |
| 2026-04-28 19:41 | 45.70439 | 6.51293 | 39077 ft | 402 kts | 268° |
| 2026-04-28 19:42 | 45.70212 | 6.43296 | 39080 ft | 401 kts | 268° |
| 2026-04-28 19:42 | 45.69981 | 6.35315 | 39073 ft | 401 kts | 268° |
| 2026-04-28 19:43 | 45.69744 | 6.27344 | 39077 ft | 402 kts | 267° |
| 2026-04-28 19:43 | 45.69500 | 6.19344 | 39079 ft | 403 kts | 268° |
| 2026-04-28 19:44 | 45.69252 | 6.11358 | 39084 ft | 406 kts | 268° |
| 2026-04-28 19:44 | 45.68995 | 6.03278 | 39075 ft | 408 kts | 268° |
| 2026-04-28 19:45 | 45.68731 | 5.95159 | 39086 ft | 409 kts | 267° |
| 2026-04-28 19:45 | 45.68459 | 5.86997 | 39083 ft | 411 kts | 267° |
| 2026-04-28 19:46 | 45.68182 | 5.78809 | 39082 ft | 412 kts | 267° |
| 2026-04-28 19:46 | 45.67900 | 5.70669 | 39072 ft | 412 kts | 267° |
| 2026-04-28 19:47 | 45.67612 | 5.62480 | 39077 ft | 412 kts | 268° |
| 2026-04-28 19:47 | 45.68140 | 5.54354 | 39079 ft | 411 kts | 281° |
| 2026-04-28 19:48 | 45.69331 | 5.46359 | 39078 ft | 410 kts | 281° |
| 2026-04-28 19:48 | 45.70490 | 5.38399 | 39058 ft | 408 kts | 280° |
| 2026-04-28 19:49 | 45.71616 | 5.30453 | 39051 ft | 407 kts | 280° |
| 2026-04-28 19:49 | 45.72729 | 5.22524 | 39050 ft | 405 kts | 280° |
| 2026-04-28 19:50 | 45.73850 | 5.10663 | 39051 ft | 402 kts | 263° |
| 2026-04-28 19:51 | 45.72323 | 5.02999 | 39043 ft | 404 kts | 243° |
| 2026-04-28 19:51 | 45.69529 | 4.96030 | 39060 ft | 404 kts | 242° |
| 2026-04-28 19:52 | 45.66765 | 4.89031 | 39049 ft | 404 kts | 243° |
| 2026-04-28 19:52 | 45.64185 | 4.81893 | 39062 ft | 404 kts | 245° |
| 2026-04-28 19:53 | 45.61684 | 4.74710 | 39063 ft | 406 kts | 245° |
| 2026-04-28 19:53 | 45.59497 | 4.68489 | 39058 ft | 407 kts | 245° |
| 2026-04-28 19:54 | 45.56933 | 4.61268 | 39056 ft | 409 kts | 245° |
| 2026-04-28 19:54 | 45.54344 | 4.54009 | 39051 ft | 410 kts | 245° |